sensor_id;sensor_type;location;lat;lon;timestamp;P1;durP1;ratioP1;P2;durP2;ratioP2
55776;SDS011;54079;44.540;18.784;2023-12-29T00:01:16;20.90;;;14.23;;
55776;SDS011;54079;44.540;18.784;2023-12-29T00:03:43;20.92;;;15.43;;
55776;SDS011;54079;44.540;18.784;2023-12-29T00:06:09;19.20;;;13.43;;
55776;SDS011;54079;44.540;18.784;2023-12-29T00:08:38;22.25;;;14.18;;
55776;SDS011;54079;44.540;18.784;2023-12-29T00:11:04;20.52;;;14.30;;
55776;SDS011;54079;44.540;18.784;2023-12-29T00:13:30;19.02;;;14.55;;
55776;SDS011;54079;44.540;18.784;2023-12-29T00:15:56;24.67;;;17.33;;
55776;SDS011;54079;44.540;18.784;2023-12-29T00:18:22;26.00;;;17.35;;
55776;SDS011;54079;44.540;18.784;2023-12-29T00:20:49;22.05;;;13.65;;
55776;SDS011;54079;44.540;18.784;2023-12-29T00:23:15;19.42;;;12.77;;
55776;SDS011;54079;44.540;18.784;2023-12-29T00:25:41;21.23;;;13.65;;
55776;SDS011;54079;44.540;18.784;2023-12-29T00:28:07;19.15;;;13.45;;
55776;SDS011;54079;44.540;18.784;2023-12-29T00:30:33;26.77;;;18.90;;
55776;SDS011;54079;44.540;18.784;2023-12-29T00:33:04;32.75;;;21.42;;
55776;SDS011;54079;44.540;18.784;2023-12-29T00:35:31;30.27;;;19.13;;
55776;SDS011;54079;44.540;18.784;2023-12-29T00:37:56;24.02;;;16.48;;
55776;SDS011;54079;44.540;18.784;2023-12-29T00:40:22;21.05;;;15.75;;
55776;SDS011;54079;44.540;18.784;2023-12-29T00:42:48;17.33;;;13.35;;
55776;SDS011;54079;44.540;18.784;2023-12-29T00:45:14;20.40;;;12.90;;
55776;SDS011;54079;44.540;18.784;2023-12-29T00:47:40;25.88;;;17.48;;
55776;SDS011;54079;44.540;18.784;2023-12-29T00:50:06;20.92;;;13.38;;
55776;SDS011;54079;44.540;18.784;2023-12-29T00:52:32;29.92;;;21.20;;
55776;SDS011;54079;44.540;18.784;2023-12-29T00:54:59;29.60;;;20.58;;
55776;SDS011;54079;44.540;18.784;2023-12-29T00:57:25;26.60;;;17.95;;
55776;SDS011;54079;44.540;18.784;2023-12-29T00:59:50;23.58;;;16.27;;
55776;SDS011;54079;44.540;18.784;2023-12-29T01:02:16;20.85;;;13.45;;
55776;SDS011;54079;44.540;18.784;2023-12-29T01:04:42;25.17;;;17.00;;
55776;SDS011;54079;44.540;18.784;2023-12-29T01:07:08;24.05;;;17.23;;
55776;SDS011;54079;44.540;18.784;2023-12-29T01:09:40;20.85;;;14.27;;
55776;SDS011;54079;44.540;18.784;2023-12-29T01:12:06;20.25;;;14.60;;
55776;SDS011;54079;44.540;18.784;2023-12-29T01:14:33;22.92;;;15.32;;
55776;SDS011;54079;44.540;18.784;2023-12-29T01:16:59;20.65;;;13.48;;
55776;SDS011;54079;44.540;18.784;2023-12-29T01:19:24;23.92;;;16.25;;
55776;SDS011;54079;44.540;18.784;2023-12-29T01:21:50;23.55;;;16.13;;
55776;SDS011;54079;44.540;18.784;2023-12-29T01:24:17;28.40;;;17.80;;
55776;SDS011;54079;44.540;18.784;2023-12-29T01:26:43;19.88;;;14.13;;
55776;SDS011;54079;44.540;18.784;2023-12-29T01:29:08;19.00;;;13.70;;
55776;SDS011;54079;44.540;18.784;2023-12-29T01:31:34;23.45;;;16.45;;
55776;SDS011;54079;44.540;18.784;2023-12-29T01:34:00;22.17;;;14.25;;
55776;SDS011;54079;44.540;18.784;2023-12-29T01:36:26;24.02;;;16.55;;
55776;SDS011;54079;44.540;18.784;2023-12-29T01:38:52;22.40;;;14.63;;
55776;SDS011;54079;44.540;18.784;2023-12-29T01:41:22;17.75;;;12.48;;
55776;SDS011;54079;44.540;18.784;2023-12-29T01:46:29;17.75;;;13.13;;
55776;SDS011;54079;44.540;18.784;2023-12-29T01:48:59;21.25;;;13.80;;
55776;SDS011;54079;44.540;18.784;2023-12-29T01:51:26;22.77;;;15.57;;
55776;SDS011;54079;44.540;18.784;2023-12-29T01:53:52;20.77;;;14.88;;
55776;SDS011;54079;44.540;18.784;2023-12-29T01:56:21;23.77;;;16.95;;
55776;SDS011;54079;44.540;18.784;2023-12-29T01:58:49;21.70;;;16.23;;
55776;SDS011;54079;44.540;18.784;2023-12-29T02:01:16;25.60;;;16.42;;
55776;SDS011;54079;44.540;18.784;2023-12-29T02:03:44;19.60;;;13.68;;
55776;SDS011;54079;44.540;18.784;2023-12-29T02:06:10;18.23;;;12.05;;
55776;SDS011;54079;44.540;18.784;2023-12-29T02:08:40;17.65;;;12.85;;
55776;SDS011;54079;44.540;18.784;2023-12-29T02:11:06;16.85;;;12.10;;
55776;SDS011;54079;44.540;18.784;2023-12-29T02:13:32;18.90;;;13.15;;
55776;SDS011;54079;44.540;18.784;2023-12-29T02:16:00;17.85;;;12.70;;
55776;SDS011;54079;44.540;18.784;2023-12-29T02:18:36;17.45;;;11.15;;
55776;SDS011;54079;44.540;18.784;2023-12-29T02:21:04;18.67;;;13.00;;
55776;SDS011;54079;44.540;18.784;2023-12-29T02:23:30;17.77;;;11.52;;
55776;SDS011;54079;44.540;18.784;2023-12-29T02:25:58;17.38;;;12.02;;
55776;SDS011;54079;44.540;18.784;2023-12-29T02:28:32;15.63;;;11.32;;
55776;SDS011;54079;44.540;18.784;2023-12-29T02:31:07;15.75;;;12.05;;
55776;SDS011;54079;44.540;18.784;2023-12-29T02:33:40;32.67;;;13.73;;
55776;SDS011;54079;44.540;18.784;2023-12-29T02:36:08;17.52;;;12.10;;
55776;SDS011;54079;44.540;18.784;2023-12-29T02:38:35;20.35;;;13.15;;
55776;SDS011;54079;44.540;18.784;2023-12-29T02:41:02;21.67;;;12.32;;
55776;SDS011;54079;44.540;18.784;2023-12-29T02:43:29;15.93;;;10.90;;
55776;SDS011;54079;44.540;18.784;2023-12-29T02:45:57;18.27;;;11.85;;
55776;SDS011;54079;44.540;18.784;2023-12-29T02:48:23;14.43;;;10.95;;
55776;SDS011;54079;44.540;18.784;2023-12-29T02:50:49;20.58;;;13.05;;
55776;SDS011;54079;44.540;18.784;2023-12-29T02:53:15;17.73;;;11.40;;
55776;SDS011;54079;44.540;18.784;2023-12-29T02:55:41;15.50;;;10.38;;
55776;SDS011;54079;44.540;18.784;2023-12-29T02:58:08;12.55;;;8.95;;
55776;SDS011;54079;44.540;18.784;2023-12-29T03:00:34;14.65;;;10.90;;
55776;SDS011;54079;44.540;18.784;2023-12-29T03:03:00;20.65;;;12.80;;
55776;SDS011;54079;44.540;18.784;2023-12-29T03:05:26;18.20;;;11.77;;
55776;SDS011;54079;44.540;18.784;2023-12-29T03:07:52;18.17;;;11.85;;
55776;SDS011;54079;44.540;18.784;2023-12-29T03:10:18;14.77;;;9.80;;
55776;SDS011;54079;44.540;18.784;2023-12-29T03:12:44;14.85;;;10.57;;
55776;SDS011;54079;44.540;18.784;2023-12-29T03:15:10;15.45;;;10.70;;
55776;SDS011;54079;44.540;18.784;2023-12-29T03:17:36;18.33;;;13.63;;
55776;SDS011;54079;44.540;18.784;2023-12-29T03:20:02;19.10;;;11.52;;
55776;SDS011;54079;44.540;18.784;2023-12-29T03:22:30;16.98;;;11.18;;
55776;SDS011;54079;44.540;18.784;2023-12-29T03:24:56;12.70;;;9.35;;
55776;SDS011;54079;44.540;18.784;2023-12-29T03:27:21;15.77;;;9.73;;
55776;SDS011;54079;44.540;18.784;2023-12-29T03:29:47;17.80;;;13.02;;
55776;SDS011;54079;44.540;18.784;2023-12-29T03:32:13;17.33;;;12.10;;
55776;SDS011;54079;44.540;18.784;2023-12-29T03:34:40;14.52;;;10.48;;
55776;SDS011;54079;44.540;18.784;2023-12-29T03:37:06;17.20;;;12.25;;
55776;SDS011;54079;44.540;18.784;2023-12-29T03:39:32;20.77;;;13.27;;
55776;SDS011;54079;44.540;18.784;2023-12-29T03:42:00;20.92;;;13.10;;
55776;SDS011;54079;44.540;18.784;2023-12-29T03:44:27;18.65;;;11.10;;
55776;SDS011;54079;44.540;18.784;2023-12-29T03:46:53;16.92;;;11.15;;
55776;SDS011;54079;44.540;18.784;2023-12-29T03:49:19;16.83;;;11.63;;
55776;SDS011;54079;44.540;18.784;2023-12-29T03:51:45;15.07;;;11.05;;
55776;SDS011;54079;44.540;18.784;2023-12-29T03:54:11;15.23;;;10.65;;
55776;SDS011;54079;44.540;18.784;2023-12-29T03:56:37;14.60;;;10.18;;
55776;SDS011;54079;44.540;18.784;2023-12-29T03:59:03;17.30;;;11.60;;
55776;SDS011;54079;44.540;18.784;2023-12-29T04:01:29;16.95;;;11.50;;
55776;SDS011;54079;44.540;18.784;2023-12-29T04:03:59;15.85;;;11.00;;
55776;SDS011;54079;44.540;18.784;2023-12-29T04:06:25;15.32;;;10.32;;
55776;SDS011;54079;44.540;18.784;2023-12-29T04:08:51;19.20;;;12.15;;
55776;SDS011;54079;44.540;18.784;2023-12-29T04:11:16;14.98;;;10.43;;
55776;SDS011;54079;44.540;18.784;2023-12-29T04:13:42;16.27;;;10.77;;
55776;SDS011;54079;44.540;18.784;2023-12-29T04:16:08;17.00;;;11.13;;
55776;SDS011;54079;44.540;18.784;2023-12-29T04:18:34;14.98;;;11.30;;
55776;SDS011;54079;44.540;18.784;2023-12-29T04:21:00;16.83;;;12.18;;
55776;SDS011;54079;44.540;18.784;2023-12-29T04:23:26;15.15;;;10.80;;
55776;SDS011;54079;44.540;18.784;2023-12-29T04:25:52;19.48;;;12.57;;
55776;SDS011;54079;44.540;18.784;2023-12-29T04:28:18;20.50;;;13.63;;
55776;SDS011;54079;44.540;18.784;2023-12-29T04:30:44;15.98;;;11.20;;
55776;SDS011;54079;44.540;18.784;2023-12-29T04:33:10;17.88;;;12.68;;
55776;SDS011;54079;44.540;18.784;2023-12-29T04:35:36;17.65;;;11.27;;
55776;SDS011;54079;44.540;18.784;2023-12-29T04:38:02;16.90;;;11.35;;
55776;SDS011;54079;44.540;18.784;2023-12-29T04:40:28;28.60;;;12.00;;
55776;SDS011;54079;44.540;18.784;2023-12-29T04:42:54;23.52;;;12.85;;
55776;SDS011;54079;44.540;18.784;2023-12-29T04:45:20;16.90;;;12.15;;
55776;SDS011;54079;44.540;18.784;2023-12-29T04:47:46;15.65;;;11.30;;
55776;SDS011;54079;44.540;18.784;2023-12-29T04:50:12;15.45;;;9.90;;
55776;SDS011;54079;44.540;18.784;2023-12-29T04:52:38;14.30;;;10.43;;
55776;SDS011;54079;44.540;18.784;2023-12-29T04:55:04;18.25;;;11.30;;
55776;SDS011;54079;44.540;18.784;2023-12-29T04:57:30;16.27;;;11.50;;
55776;SDS011;54079;44.540;18.784;2023-12-29T04:59:56;17.27;;;11.45;;
55776;SDS011;54079;44.540;18.784;2023-12-29T05:02:22;18.73;;;12.10;;
55776;SDS011;54079;44.540;18.784;2023-12-29T05:04:48;20.10;;;12.40;;
55776;SDS011;54079;44.540;18.784;2023-12-29T05:07:14;20.30;;;13.15;;
55776;SDS011;54079;44.540;18.784;2023-12-29T05:09:40;17.05;;;12.20;;
55776;SDS011;54079;44.540;18.784;2023-12-29T05:12:07;22.33;;;13.50;;
55776;SDS011;54079;44.540;18.784;2023-12-29T05:14:33;14.93;;;10.95;;
55776;SDS011;54079;44.540;18.784;2023-12-29T05:16:59;15.10;;;10.65;;
55776;SDS011;54079;44.540;18.784;2023-12-29T05:19:25;18.15;;;12.38;;
55776;SDS011;54079;44.540;18.784;2023-12-29T05:21:51;20.20;;;13.27;;
55776;SDS011;54079;44.540;18.784;2023-12-29T05:24:19;17.52;;;12.13;;
55776;SDS011;54079;44.540;18.784;2023-12-29T05:26:45;18.48;;;11.70;;
55776;SDS011;54079;44.540;18.784;2023-12-29T05:29:11;15.77;;;11.32;;
55776;SDS011;54079;44.540;18.784;2023-12-29T05:31:37;17.98;;;12.23;;
55776;SDS011;54079;44.540;18.784;2023-12-29T05:34:03;21.33;;;13.52;;
55776;SDS011;54079;44.540;18.784;2023-12-29T05:36:28;20.85;;;13.15;;
55776;SDS011;54079;44.540;18.784;2023-12-29T05:38:55;19.77;;;12.70;;
55776;SDS011;54079;44.540;18.784;2023-12-29T05:41:21;22.23;;;13.57;;
55776;SDS011;54079;44.540;18.784;2023-12-29T05:43:48;21.05;;;14.00;;
55776;SDS011;54079;44.540;18.784;2023-12-29T05:46:14;21.23;;;13.65;;
55776;SDS011;54079;44.540;18.784;2023-12-29T05:48:40;17.90;;;12.35;;
55776;SDS011;54079;44.540;18.784;2023-12-29T05:51:09;18.38;;;12.88;;
55776;SDS011;54079;44.540;18.784;2023-12-29T05:53:36;15.85;;;12.27;;
55776;SDS011;54079;44.540;18.784;2023-12-29T05:56:04;17.15;;;11.20;;
55776;SDS011;54079;44.540;18.784;2023-12-29T05:58:30;19.98;;;12.45;;
55776;SDS011;54079;44.540;18.784;2023-12-29T06:00:56;17.23;;;12.68;;
55776;SDS011;54079;44.540;18.784;2023-12-29T06:03:24;16.45;;;11.63;;
55776;SDS011;54079;44.540;18.784;2023-12-29T06:05:50;18.40;;;13.02;;
55776;SDS011;54079;44.540;18.784;2023-12-29T06:08:16;17.77;;;12.40;;
55776;SDS011;54079;44.540;18.784;2023-12-29T06:10:42;16.83;;;12.00;;
55776;SDS011;54079;44.540;18.784;2023-12-29T06:13:08;20.17;;;14.32;;
55776;SDS011;54079;44.540;18.784;2023-12-29T06:15:34;16.98;;;11.98;;
55776;SDS011;54079;44.540;18.784;2023-12-29T06:18:01;15.85;;;12.00;;
55776;SDS011;54079;44.540;18.784;2023-12-29T06:20:27;19.45;;;13.85;;
55776;SDS011;54079;44.540;18.784;2023-12-29T06:22:54;17.13;;;12.05;;
55776;SDS011;54079;44.540;18.784;2023-12-29T06:25:20;21.83;;;14.95;;
55776;SDS011;54079;44.540;18.784;2023-12-29T06:27:46;23.60;;;14.75;;
55776;SDS011;54079;44.540;18.784;2023-12-29T06:30:13;21.33;;;15.05;;
55776;SDS011;54079;44.540;18.784;2023-12-29T06:32:40;23.77;;;16.35;;
55776;SDS011;54079;44.540;18.784;2023-12-29T06:35:06;19.95;;;14.45;;
55776;SDS011;54079;44.540;18.784;2023-12-29T06:37:35;23.98;;;14.98;;
55776;SDS011;54079;44.540;18.784;2023-12-29T06:40:03;23.60;;;16.83;;
55776;SDS011;54079;44.540;18.784;2023-12-29T06:42:30;22.45;;;14.40;;
55776;SDS011;54079;44.540;18.784;2023-12-29T06:44:56;18.80;;;13.43;;
55776;SDS011;54079;44.540;18.784;2023-12-29T06:47:22;20.73;;;13.38;;
55776;SDS011;54079;44.540;18.784;2023-12-29T06:49:48;19.15;;;13.35;;
55776;SDS011;54079;44.540;18.784;2023-12-29T06:52:15;21.92;;;13.90;;
55776;SDS011;54079;44.540;18.784;2023-12-29T06:54:41;19.63;;;13.05;;
55776;SDS011;54079;44.540;18.784;2023-12-29T06:57:07;20.42;;;14.65;;
55776;SDS011;54079;44.540;18.784;2023-12-29T06:59:33;23.02;;;15.30;;
55776;SDS011;54079;44.540;18.784;2023-12-29T07:01:59;24.30;;;15.95;;
55776;SDS011;54079;44.540;18.784;2023-12-29T07:04:25;29.77;;;15.98;;
55776;SDS011;54079;44.540;18.784;2023-12-29T07:06:51;17.15;;;12.45;;
55776;SDS011;54079;44.540;18.784;2023-12-29T07:09:17;18.17;;;12.88;;
55776;SDS011;54079;44.540;18.784;2023-12-29T07:11:52;17.20;;;11.82;;
55776;SDS011;54079;44.540;18.784;2023-12-29T07:14:18;20.35;;;13.80;;
55776;SDS011;54079;44.540;18.784;2023-12-29T07:16:43;15.05;;;10.80;;
55776;SDS011;54079;44.540;18.784;2023-12-29T07:19:09;18.08;;;12.45;;
55776;SDS011;54079;44.540;18.784;2023-12-29T07:21:35;23.90;;;16.67;;
55776;SDS011;54079;44.540;18.784;2023-12-29T07:24:01;24.02;;;18.13;;
55776;SDS011;54079;44.540;18.784;2023-12-29T07:26:27;18.52;;;12.40;;
55776;SDS011;54079;44.540;18.784;2023-12-29T07:28:53;16.88;;;11.48;;
55776;SDS011;54079;44.540;18.784;2023-12-29T07:31:22;17.33;;;12.68;;
55776;SDS011;54079;44.540;18.784;2023-12-29T07:33:49;18.23;;;12.63;;
55776;SDS011;54079;44.540;18.784;2023-12-29T07:36:16;21.08;;;14.80;;
55776;SDS011;54079;44.540;18.784;2023-12-29T07:38:42;20.65;;;13.82;;
55776;SDS011;54079;44.540;18.784;2023-12-29T07:41:09;19.17;;;13.77;;
55776;SDS011;54079;44.540;18.784;2023-12-29T07:43:35;21.80;;;15.30;;
55776;SDS011;54079;44.540;18.784;2023-12-29T07:46:01;21.35;;;15.57;;
55776;SDS011;54079;44.540;18.784;2023-12-29T07:48:27;20.73;;;14.68;;
55776;SDS011;54079;44.540;18.784;2023-12-29T07:51:04;19.65;;;13.30;;
55776;SDS011;54079;44.540;18.784;2023-12-29T07:53:31;21.00;;;14.38;;
55776;SDS011;54079;44.540;18.784;2023-12-29T07:55:57;25.42;;;16.77;;
55776;SDS011;54079;44.540;18.784;2023-12-29T07:58:23;28.15;;;18.65;;
55776;SDS011;54079;44.540;18.784;2023-12-29T12:32:58;6.70;;;5.25;;
55776;SDS011;54079;44.540;18.784;2023-12-29T12:35:25;6.25;;;5.03;;
55776;SDS011;54079;44.540;18.784;2023-12-29T12:38:08;9.15;;;7.15;;
55776;SDS011;54079;44.540;18.784;2023-12-29T12:40:34;10.45;;;7.25;;
55776;SDS011;54079;44.540;18.784;2023-12-29T12:43:01;8.48;;;4.95;;
55776;SDS011;54079;44.540;18.784;2023-12-29T12:45:28;7.38;;;5.00;;
55776;SDS011;54079;44.540;18.784;2023-12-29T12:48:02;6.57;;;4.97;;
55776;SDS011;54079;44.540;18.784;2023-12-29T12:50:41;7.72;;;5.75;;
55776;SDS011;54079;44.540;18.784;2023-12-29T12:53:12;5.45;;;4.03;;
55776;SDS011;54079;44.540;18.784;2023-12-29T12:55:46;4.32;;;2.97;;
55776;SDS011;54079;44.540;18.784;2023-12-29T12:58:15;5.03;;;3.65;;
55776;SDS011;54079;44.540;18.784;2023-12-29T13:00:42;6.30;;;4.88;;
55776;SDS011;54079;44.540;18.784;2023-12-29T13:03:08;6.70;;;4.90;;
55776;SDS011;54079;44.540;18.784;2023-12-29T13:05:35;5.13;;;3.53;;
55776;SDS011;54079;44.540;18.784;2023-12-29T13:08:02;4.68;;;3.38;;
55776;SDS011;54079;44.540;18.784;2023-12-29T13:10:30;10.10;;;8.55;;
55776;SDS011;54079;44.540;18.784;2023-12-29T13:12:56;7.10;;;5.70;;
55776;SDS011;54079;44.540;18.784;2023-12-29T13:15:22;5.53;;;4.03;;
55776;SDS011;54079;44.540;18.784;2023-12-29T13:17:54;3.00;;;2.42;;
55776;SDS011;54079;44.540;18.784;2023-12-29T13:20:20;10.35;;;8.00;;
55776;SDS011;54079;44.540;18.784;2023-12-29T13:22:49;14.63;;;11.30;;
55776;SDS011;54079;44.540;18.784;2023-12-29T13:25:19;15.00;;;11.80;;
55776;SDS011;54079;44.540;18.784;2023-12-29T13:27:49;5.25;;;3.90;;
55776;SDS011;54079;44.540;18.784;2023-12-29T13:30:15;5.00;;;3.30;;
55776;SDS011;54079;44.540;18.784;2023-12-29T13:32:43;3.40;;;3.08;;
55776;SDS011;54079;44.540;18.784;2023-12-29T13:35:16;9.07;;;7.22;;
55776;SDS011;54079;44.540;18.784;2023-12-29T13:40:27;8.85;;;6.75;;
55776;SDS011;54079;44.540;18.784;2023-12-29T13:43:01;6.57;;;4.32;;
55776;SDS011;54079;44.540;18.784;2023-12-29T13:45:29;6.85;;;4.47;;
55776;SDS011;54079;44.540;18.784;2023-12-29T13:47:56;6.32;;;4.53;;
55776;SDS011;54079;44.540;18.784;2023-12-29T13:50:24;6.47;;;4.78;;
55776;SDS011;54079;44.540;18.784;2023-12-29T13:52:50;4.15;;;2.95;;
55776;SDS011;54079;44.540;18.784;2023-12-29T13:55:23;8.02;;;4.57;;
55776;SDS011;54079;44.540;18.784;2023-12-29T13:57:50;6.22;;;4.72;;
55776;SDS011;54079;44.540;18.784;2023-12-29T14:00:21;4.63;;;4.00;;
55776;SDS011;54079;44.540;18.784;2023-12-29T14:10:33;7.78;;;5.70;;
55776;SDS011;54079;44.540;18.784;2023-12-29T14:13:07;5.35;;;3.58;;
55776;SDS011;54079;44.540;18.784;2023-12-29T14:15:40;4.07;;;3.50;;
55776;SDS011;54079;44.540;18.784;2023-12-29T14:20:37;5.97;;;5.13;;
55776;SDS011;54079;44.540;18.784;2023-12-29T14:23:07;3.97;;;2.60;;
55776;SDS011;54079;44.540;18.784;2023-12-29T14:25:35;5.00;;;3.97;;
55776;SDS011;54079;44.540;18.784;2023-12-29T14:28:02;4.95;;;3.80;;
55776;SDS011;54079;44.540;18.784;2023-12-29T14:30:38;8.82;;;5.97;;
55776;SDS011;54079;44.540;18.784;2023-12-29T14:33:04;8.50;;;6.90;;
55776;SDS011;54079;44.540;18.784;2023-12-29T14:35:31;10.32;;;7.13;;
55776;SDS011;54079;44.540;18.784;2023-12-29T14:37:57;12.45;;;9.57;;
55776;SDS011;54079;44.540;18.784;2023-12-29T14:40:23;9.10;;;7.32;;
55776;SDS011;54079;44.540;18.784;2023-12-29T14:42:49;9.10;;;6.95;;
55776;SDS011;54079;44.540;18.784;2023-12-29T14:45:15;11.07;;;8.63;;
55776;SDS011;54079;44.540;18.784;2023-12-29T14:47:41;10.27;;;7.53;;
55776;SDS011;54079;44.540;18.784;2023-12-29T14:50:07;8.43;;;6.40;;
55776;SDS011;54079;44.540;18.784;2023-12-29T14:52:34;9.90;;;6.18;;
55776;SDS011;54079;44.540;18.784;2023-12-29T14:55:00;7.15;;;4.78;;
55776;SDS011;54079;44.540;18.784;2023-12-29T14:57:25;6.75;;;5.00;;
55776;SDS011;54079;44.540;18.784;2023-12-29T14:59:51;8.75;;;5.35;;
55776;SDS011;54079;44.540;18.784;2023-12-29T15:02:17;5.65;;;4.75;;
55776;SDS011;54079;44.540;18.784;2023-12-29T15:04:43;7.43;;;6.07;;
55776;SDS011;54079;44.540;18.784;2023-12-29T15:07:09;9.02;;;5.22;;
55776;SDS011;54079;44.540;18.784;2023-12-29T15:09:35;9.75;;;6.72;;
55776;SDS011;54079;44.540;18.784;2023-12-29T15:12:01;6.78;;;5.03;;
55776;SDS011;54079;44.540;18.784;2023-12-29T15:14:30;5.80;;;3.63;;
55776;SDS011;54079;44.540;18.784;2023-12-29T15:16:56;4.75;;;3.13;;
55776;SDS011;54079;44.540;18.784;2023-12-29T15:19:22;5.32;;;3.38;;
55776;SDS011;54079;44.540;18.784;2023-12-29T15:21:48;5.18;;;3.85;;
55776;SDS011;54079;44.540;18.784;2023-12-29T15:24:18;5.38;;;3.65;;
55776;SDS011;54079;44.540;18.784;2023-12-29T15:26:45;5.13;;;3.35;;
55776;SDS011;54079;44.540;18.784;2023-12-29T15:29:11;6.95;;;5.15;;
55776;SDS011;54079;44.540;18.784;2023-12-29T15:31:37;10.88;;;8.18;;
55776;SDS011;54079;44.540;18.784;2023-12-29T15:34:06;9.85;;;7.00;;
55776;SDS011;54079;44.540;18.784;2023-12-29T15:36:32;6.20;;;5.13;;
55776;SDS011;54079;44.540;18.784;2023-12-29T15:38:59;8.90;;;6.28;;
55776;SDS011;54079;44.540;18.784;2023-12-29T15:41:25;9.63;;;7.85;;
55776;SDS011;54079;44.540;18.784;2023-12-29T15:43:51;7.28;;;6.22;;
55776;SDS011;54079;44.540;18.784;2023-12-29T15:46:18;10.75;;;8.10;;
55776;SDS011;54079;44.540;18.784;2023-12-29T15:48:47;15.82;;;12.88;;
55776;SDS011;54079;44.540;18.784;2023-12-29T15:51:14;17.00;;;14.07;;
55776;SDS011;54079;44.540;18.784;2023-12-29T15:53:39;17.30;;;12.32;;
55776;SDS011;54079;44.540;18.784;2023-12-29T15:56:06;13.77;;;11.20;;
55776;SDS011;54079;44.540;18.784;2023-12-29T15:58:32;11.88;;;9.32;;
55776;SDS011;54079;44.540;18.784;2023-12-29T16:00:58;11.77;;;9.20;;
55776;SDS011;54079;44.540;18.784;2023-12-29T16:03:24;10.95;;;9.00;;
55776;SDS011;54079;44.540;18.784;2023-12-29T16:05:50;14.07;;;11.07;;
55776;SDS011;54079;44.540;18.784;2023-12-29T16:08:16;12.50;;;10.75;;
55776;SDS011;54079;44.540;18.784;2023-12-29T16:10:42;10.85;;;8.65;;
55776;SDS011;54079;44.540;18.784;2023-12-29T16:13:08;10.60;;;8.30;;
55776;SDS011;54079;44.540;18.784;2023-12-29T16:15:35;12.45;;;9.80;;
55776;SDS011;54079;44.540;18.784;2023-12-29T16:18:01;14.30;;;10.52;;
55776;SDS011;54079;44.540;18.784;2023-12-29T16:20:27;14.38;;;12.02;;
55776;SDS011;54079;44.540;18.784;2023-12-29T16:22:53;16.90;;;13.20;;
55776;SDS011;54079;44.540;18.784;2023-12-29T16:25:19;11.93;;;10.63;;
55776;SDS011;54079;44.540;18.784;2023-12-29T16:27:46;14.02;;;9.50;;
55776;SDS011;54079;44.540;18.784;2023-12-29T16:30:12;15.50;;;11.20;;
55776;SDS011;54079;44.540;18.784;2023-12-29T16:32:38;27.13;;;20.23;;
55776;SDS011;54079;44.540;18.784;2023-12-29T16:35:04;52.85;;;39.75;;
55776;SDS011;54079;44.540;18.784;2023-12-29T16:37:35;52.83;;;40.17;;
55776;SDS011;54079;44.540;18.784;2023-12-29T16:40:02;41.60;;;31.00;;
55776;SDS011;54079;44.540;18.784;2023-12-29T16:42:29;29.23;;;20.98;;
55776;SDS011;54079;44.540;18.784;2023-12-29T16:44:55;18.33;;;13.10;;
55776;SDS011;54079;44.540;18.784;2023-12-29T16:47:21;18.50;;;13.50;;
55776;SDS011;54079;44.540;18.784;2023-12-29T16:49:47;25.08;;;17.10;;
55776;SDS011;54079;44.540;18.784;2023-12-29T16:52:13;25.13;;;18.65;;
55776;SDS011;54079;44.540;18.784;2023-12-29T16:54:39;27.00;;;20.73;;
55776;SDS011;54079;44.540;18.784;2023-12-29T16:57:05;19.35;;;14.20;;
55776;SDS011;54079;44.540;18.784;2023-12-29T16:59:31;22.27;;;16.70;;
55776;SDS011;54079;44.540;18.784;2023-12-29T17:01:57;12.90;;;10.02;;
55776;SDS011;54079;44.540;18.784;2023-12-29T17:04:25;10.50;;;8.18;;
55776;SDS011;54079;44.540;18.784;2023-12-29T17:06:51;7.15;;;5.43;;
55776;SDS011;54079;44.540;18.784;2023-12-29T17:09:17;7.95;;;4.78;;
55776;SDS011;54079;44.540;18.784;2023-12-29T17:11:43;6.53;;;4.78;;
55776;SDS011;54079;44.540;18.784;2023-12-29T17:14:09;9.45;;;5.95;;
55776;SDS011;54079;44.540;18.784;2023-12-29T17:16:39;6.40;;;5.03;;
55776;SDS011;54079;44.540;18.784;2023-12-29T17:19:06;7.60;;;5.43;;
55776;SDS011;54079;44.540;18.784;2023-12-29T17:21:32;7.07;;;5.15;;
55776;SDS011;54079;44.540;18.784;2023-12-29T17:23:58;4.32;;;3.30;;
55776;SDS011;54079;44.540;18.784;2023-12-29T17:26:24;7.88;;;5.10;;
55776;SDS011;54079;44.540;18.784;2023-12-29T17:28:50;7.68;;;6.68;;
55776;SDS011;54079;44.540;18.784;2023-12-29T17:31:17;9.55;;;5.95;;
55776;SDS011;54079;44.540;18.784;2023-12-29T17:33:43;6.47;;;4.50;;
55776;SDS011;54079;44.540;18.784;2023-12-29T17:36:09;6.80;;;5.70;;
55776;SDS011;54079;44.540;18.784;2023-12-29T17:38:36;7.07;;;4.97;;
55776;SDS011;54079;44.540;18.784;2023-12-29T17:41:03;6.05;;;4.05;;
55776;SDS011;54079;44.540;18.784;2023-12-29T17:43:29;7.22;;;5.15;;
55776;SDS011;54079;44.540;18.784;2023-12-29T17:45:56;9.48;;;7.53;;
55776;SDS011;54079;44.540;18.784;2023-12-29T17:48:22;11.90;;;9.10;;
55776;SDS011;54079;44.540;18.784;2023-12-29T17:50:49;7.95;;;5.78;;
55776;SDS011;54079;44.540;18.784;2023-12-29T17:53:15;8.52;;;6.68;;
55776;SDS011;54079;44.540;18.784;2023-12-29T17:55:42;7.53;;;5.15;;
55776;SDS011;54079;44.540;18.784;2023-12-29T17:58:09;7.85;;;6.00;;
55776;SDS011;54079;44.540;18.784;2023-12-29T18:00:35;7.60;;;5.50;;
55776;SDS011;54079;44.540;18.784;2023-12-29T18:03:02;5.70;;;4.47;;
55776;SDS011;54079;44.540;18.784;2023-12-29T18:05:28;5.25;;;4.22;;
55776;SDS011;54079;44.540;18.784;2023-12-29T18:07:54;7.38;;;5.20;;
55776;SDS011;54079;44.540;18.784;2023-12-29T18:10:20;6.07;;;4.40;;
55776;SDS011;54079;44.540;18.784;2023-12-29T18:12:46;3.88;;;2.83;;
55776;SDS011;54079;44.540;18.784;2023-12-29T18:15:12;2.95;;;2.00;;
55776;SDS011;54079;44.540;18.784;2023-12-29T18:17:40;5.00;;;3.63;;
55776;SDS011;54079;44.540;18.784;2023-12-29T18:20:06;12.88;;;9.77;;
55776;SDS011;54079;44.540;18.784;2023-12-29T18:22:33;6.45;;;5.20;;
55776;SDS011;54079;44.540;18.784;2023-12-29T18:24:59;7.63;;;5.07;;
55776;SDS011;54079;44.540;18.784;2023-12-29T18:27:25;5.43;;;4.30;;
55776;SDS011;54079;44.540;18.784;2023-12-29T18:32:23;2.33;;;2.03;;
55776;SDS011;54079;44.540;18.784;2023-12-29T18:34:49;5.97;;;3.78;;
55776;SDS011;54079;44.540;18.784;2023-12-29T18:37:16;7.20;;;5.80;;
55776;SDS011;54079;44.540;18.784;2023-12-29T18:39:42;9.38;;;7.18;;
55776;SDS011;54079;44.540;18.784;2023-12-29T18:42:09;5.20;;;4.10;;
55776;SDS011;54079;44.540;18.784;2023-12-29T18:44:36;6.22;;;4.88;;
55776;SDS011;54079;44.540;18.784;2023-12-29T18:47:03;7.45;;;5.88;;
55776;SDS011;54079;44.540;18.784;2023-12-29T18:49:29;7.07;;;6.03;;
55776;SDS011;54079;44.540;18.784;2023-12-29T18:51:55;6.10;;;4.00;;
55776;SDS011;54079;44.540;18.784;2023-12-29T18:54:24;5.13;;;4.20;;
55776;SDS011;54079;44.540;18.784;2023-12-29T18:56:58;10.18;;;6.90;;
55776;SDS011;54079;44.540;18.784;2023-12-29T18:59:25;10.23;;;7.78;;
55776;SDS011;54079;44.540;18.784;2023-12-29T19:01:52;11.43;;;8.80;;
55776;SDS011;54079;44.540;18.784;2023-12-29T19:04:20;11.25;;;8.25;;
55776;SDS011;54079;44.540;18.784;2023-12-29T19:06:46;13.85;;;10.98;;